sensor_id;sensor_type;location;lat;lon;timestamp;temperature;humidity
22738;DHT22;11536;50.860;4.286;2022-08-19T00:00:20;21.00;99.90
22738;DHT22;11536;50.860;4.286;2022-08-19T00:02:46;21.00;99.90
22738;DHT22;11536;50.860;4.286;2022-08-19T00:05:13;21.10;99.90
22738;DHT22;11536;50.860;4.286;2022-08-19T00:07:39;21.10;99.90
22738;DHT22;11536;50.860;4.286;2022-08-19T00:10:06;21.20;99.90
22738;DHT22;11536;50.860;4.286;2022-08-19T00:12:33;21.20;99.90
22738;DHT22;11536;50.860;4.286;2022-08-19T00:14:59;21.20;99.90
22738;DHT22;11536;50.860;4.286;2022-08-19T00:17:25;21.30;99.90
22738;DHT22;11536;50.860;4.286;2022-08-19T00:19:51;21.30;99.90
22738;DHT22;11536;50.860;4.286;2022-08-19T00:22:16;21.30;99.90
22738;DHT22;11536;50.860;4.286;2022-08-19T00:24:44;21.40;99.90
22738;DHT22;11536;50.860;4.286;2022-08-19T00:27:10;21.40;99.90
22738;DHT22;11536;50.860;4.286;2022-08-19T00:29:36;21.40;99.90
22738;DHT22;11536;50.860;4.286;2022-08-19T00:32:02;21.40;99.90
22738;DHT22;11536;50.860;4.286;2022-08-19T00:34:28;21.40;99.90
22738;DHT22;11536;50.860;4.286;2022-08-19T00:36:54;21.40;99.90
22738;DHT22;11536;50.860;4.286;2022-08-19T00:39:20;21.40;99.90
22738;DHT22;11536;50.860;4.286;2022-08-19T00:41:50;21.40;99.90
22738;DHT22;11536;50.860;4.286;2022-08-19T00:44:25;21.40;99.90
22738;DHT22;11536;50.860;4.286;2022-08-19T00:46:52;21.50;99.90
22738;DHT22;11536;50.860;4.286;2022-08-19T00:51:59;21.40;99.90
22738;DHT22;11536;50.860;4.286;2022-08-19T00:54:25;21.40;99.90
22738;DHT22;11536;50.860;4.286;2022-08-19T00:56:52;21.50;99.90
22738;DHT22;11536;50.860;4.286;2022-08-19T00:59:18;21.40;99.90
22738;DHT22;11536;50.860;4.286;2022-08-19T01:01:45;21.40;99.90
22738;DHT22;11536;50.860;4.286;2022-08-19T01:04:12;21.50;99.90
22738;DHT22;11536;50.860;4.286;2022-08-19T01:06:39;21.40;99.90
22738;DHT22;11536;50.860;4.286;2022-08-19T01:09:06;21.40;99.90
22738;DHT22;11536;50.860;4.286;2022-08-19T01:11:35;21.40;99.90
22738;DHT22;11536;50.860;4.286;2022-08-19T01:14:02;21.40;99.90
22738;DHT22;11536;50.860;4.286;2022-08-19T01:16:30;21.40;99.90
22738;DHT22;11536;50.860;4.286;2022-08-19T01:18:55;21.30;99.90
22738;DHT22;11536;50.860;4.286;2022-08-19T01:23:56;21.30;99.90
22738;DHT22;11536;50.860;4.286;2022-08-19T01:26:24;21.20;99.90
22738;DHT22;11536;50.860;4.286;2022-08-19T01:28:53;21.20;99.90
22738;DHT22;11536;50.860;4.286;2022-08-19T01:31:23;21.20;99.90
22738;DHT22;11536;50.860;4.286;2022-08-19T01:33:50;21.10;99.90
22738;DHT22;11536;50.860;4.286;2022-08-19T01:36:27;21.10;99.90
22738;DHT22;11536;50.860;4.286;2022-08-19T01:38:54;21.10;99.90
22738;DHT22;11536;50.860;4.286;2022-08-19T01:41:19;21.10;99.90
22738;DHT22;11536;50.860;4.286;2022-08-19T01:43:45;21.00;99.90
22738;DHT22;11536;50.860;4.286;2022-08-19T01:46:11;21.00;99.90
22738;DHT22;11536;50.860;4.286;2022-08-19T01:48:42;20.90;99.90
22738;DHT22;11536;50.860;4.286;2022-08-19T01:51:09;20.90;99.90
22738;DHT22;11536;50.860;4.286;2022-08-19T01:53:36;20.90;99.90
22738;DHT22;11536;50.860;4.286;2022-08-19T01:56:02;20.90;99.90
22738;DHT22;11536;50.860;4.286;2022-08-19T01:58:32;20.90;99.90
22738;DHT22;11536;50.860;4.286;2022-08-19T02:00:58;20.80;99.90
22738;DHT22;11536;50.860;4.286;2022-08-19T02:03:24;20.80;99.90
22738;DHT22;11536;50.860;4.286;2022-08-19T02:05:57;20.80;99.90
22738;DHT22;11536;50.860;4.286;2022-08-19T02:08:28;20.80;99.90
22738;DHT22;11536;50.860;4.286;2022-08-19T02:10:53;20.80;99.90
22738;DHT22;11536;50.860;4.286;2022-08-19T02:13:19;20.70;99.90
22738;DHT22;11536;50.860;4.286;2022-08-19T02:15:45;20.70;99.90
22738;DHT22;11536;50.860;4.286;2022-08-19T02:18:11;20.70;99.90
22738;DHT22;11536;50.860;4.286;2022-08-19T02:20:38;20.70;99.90
22738;DHT22;11536;50.860;4.286;2022-08-19T02:23:04;20.70;99.90
22738;DHT22;11536;50.860;4.286;2022-08-19T02:25:30;20.60;99.90
22738;DHT22;11536;50.860;4.286;2022-08-19T02:27:55;20.60;99.90
22738;DHT22;11536;50.860;4.286;2022-08-19T02:30:22;20.60;99.90
22738;DHT22;11536;50.860;4.286;2022-08-19T02:32:47;20.50;99.90
22738;DHT22;11536;50.860;4.286;2022-08-19T02:35:14;20.50;99.90
22738;DHT22;11536;50.860;4.286;2022-08-19T02:37:40;20.50;99.90
22738;DHT22;11536;50.860;4.286;2022-08-19T02:40:24;20.50;99.90
22738;DHT22;11536;50.860;4.286;2022-08-19T02:42:51;20.40;99.90
22738;DHT22;11536;50.860;4.286;2022-08-19T02:45:16;20.40;99.90
22738;DHT22;11536;50.860;4.286;2022-08-19T02:47:42;20.40;99.90
22738;DHT22;11536;50.860;4.286;2022-08-19T02:50:08;20.40;99.90
22738;DHT22;11536;50.860;4.286;2022-08-19T02:52:34;20.40;99.90
22738;DHT22;11536;50.860;4.286;2022-08-19T02:55:00;20.30;99.90
22738;DHT22;11536;50.860;4.286;2022-08-19T02:57:26;20.30;99.90
22738;DHT22;11536;50.860;4.286;2022-08-19T02:59:52;20.30;99.90
22738;DHT22;11536;50.860;4.286;2022-08-19T03:02:18;20.30;99.90
22738;DHT22;11536;50.860;4.286;2022-08-19T03:04:44;20.30;99.90
22738;DHT22;11536;50.860;4.286;2022-08-19T03:07:13;20.20;99.90
22738;DHT22;11536;50.860;4.286;2022-08-19T03:09:39;20.20;99.90
22738;DHT22;11536;50.860;4.286;2022-08-19T03:12:05;20.20;99.90
22738;DHT22;11536;50.860;4.286;2022-08-19T03:14:35;20.20;99.90
22738;DHT22;11536;50.860;4.286;2022-08-19T03:17:02;20.10;99.90
22738;DHT22;11536;50.860;4.286;2022-08-19T03:19:28;20.10;99.90
22738;DHT22;11536;50.860;4.286;2022-08-19T03:21:54;20.10;99.90
22738;DHT22;11536;50.860;4.286;2022-08-19T03:24:20;20.10;99.90
22738;DHT22;11536;50.860;4.286;2022-08-19T03:26:49;20.10;99.90
22738;DHT22;11536;50.860;4.286;2022-08-19T03:29:18;20.00;99.90
22738;DHT22;11536;50.860;4.286;2022-08-19T03:31:44;20.00;99.90
22738;DHT22;11536;50.860;4.286;2022-08-19T03:34:16;20.00;99.90
22738;DHT22;11536;50.860;4.286;2022-08-19T03:36:43;20.00;99.90
22738;DHT22;11536;50.860;4.286;2022-08-19T03:39:10;19.90;99.90
22738;DHT22;11536;50.860;4.286;2022-08-19T03:41:37;19.90;99.90
22738;DHT22;11536;50.860;4.286;2022-08-19T03:44:04;19.90;99.90
22738;DHT22;11536;50.860;4.286;2022-08-19T03:46:31;19.90;99.90
22738;DHT22;11536;50.860;4.286;2022-08-19T03:48:59;19.90;99.90
22738;DHT22;11536;50.860;4.286;2022-08-19T03:51:28;19.80;99.90
22738;DHT22;11536;50.860;4.286;2022-08-19T03:53:57;19.80;99.90
22738;DHT22;11536;50.860;4.286;2022-08-19T03:56:24;19.70;99.90
22738;DHT22;11536;50.860;4.286;2022-08-19T03:58:51;19.70;99.90
22738;DHT22;11536;50.860;4.286;2022-08-19T04:01:20;19.80;99.90
22738;DHT22;11536;50.860;4.286;2022-08-19T04:03:46;19.70;99.90
22738;DHT22;11536;50.860;4.286;2022-08-19T04:06:15;19.70;99.90
22738;DHT22;11536;50.860;4.286;2022-08-19T04:08:41;19.60;99.90
22738;DHT22;11536;50.860;4.286;2022-08-19T04:11:19;19.60;99.90
22738;DHT22;11536;50.860;4.286;2022-08-19T04:13:49;19.60;99.90
22738;DHT22;11536;50.860;4.286;2022-08-19T04:16:17;19.60;99.90
22738;DHT22;11536;50.860;4.286;2022-08-19T04:18:43;19.60;99.90
22738;DHT22;11536;50.860;4.286;2022-08-19T04:21:16;19.50;99.90
22738;DHT22;11536;50.860;4.286;2022-08-19T04:23:42;19.50;99.90
22738;DHT22;11536;50.860;4.286;2022-08-19T04:26:13;19.40;99.90
22738;DHT22;11536;50.860;4.286;2022-08-19T04:28:39;19.40;99.90
22738;DHT22;11536;50.860;4.286;2022-08-19T04:31:06;19.40;99.90
22738;DHT22;11536;50.860;4.286;2022-08-19T04:33:37;19.40;99.90
22738;DHT22;11536;50.860;4.286;2022-08-19T04:36:03;19.40;99.90
22738;DHT22;11536;50.860;4.286;2022-08-19T04:38:28;19.40;99.90
22738;DHT22;11536;50.860;4.286;2022-08-19T04:40:54;19.30;99.90
22738;DHT22;11536;50.860;4.286;2022-08-19T04:43:38;19.30;99.90
22738;DHT22;11536;50.860;4.286;2022-08-19T04:46:12;19.30;99.90
22738;DHT22;11536;50.860;4.286;2022-08-19T04:48:39;19.30;99.90
22738;DHT22;11536;50.860;4.286;2022-08-19T04:51:12;19.20;99.90
22738;DHT22;11536;50.860;4.286;2022-08-19T04:53:40;19.20;99.90
22738;DHT22;11536;50.860;4.286;2022-08-19T04:56:11;19.20;99.90
22738;DHT22;11536;50.860;4.286;2022-08-19T04:58:39;19.20;99.90
22738;DHT22;11536;50.860;4.286;2022-08-19T05:01:07;19.20;99.90
22738;DHT22;11536;50.860;4.286;2022-08-19T05:03:34;19.20;99.90
22738;DHT22;11536;50.860;4.286;2022-08-19T05:06:07;19.20;99.90
22738;DHT22;11536;50.860;4.286;2022-08-19T05:08:35;19.10;99.90
22738;DHT22;11536;50.860;4.286;2022-08-19T05:13:39;19.10;99.90
22738;DHT22;11536;50.860;4.286;2022-08-19T05:16:05;19.10;99.90
22738;DHT22;11536;50.860;4.286;2022-08-19T05:18:31;19.10;99.90
22738;DHT22;11536;50.860;4.286;2022-08-19T05:21:19;19.10;99.90
22738;DHT22;11536;50.860;4.286;2022-08-19T05:24:04;19.10;99.90
22738;DHT22;11536;50.860;4.286;2022-08-19T05:26:39;19.00;99.90
22738;DHT22;11536;50.860;4.286;2022-08-19T05:29:06;19.00;99.90
22738;DHT22;11536;50.860;4.286;2022-08-19T05:31:36;19.00;99.90
22738;DHT22;11536;50.860;4.286;2022-08-19T05:34:03;19.00;99.90
22738;DHT22;11536;50.860;4.286;2022-08-19T05:36:36;18.90;99.90
22738;DHT22;11536;50.860;4.286;2022-08-19T05:39:03;18.90;99.90
22738;DHT22;11536;50.860;4.286;2022-08-19T05:41:29;18.90;99.90
22738;DHT22;11536;50.860;4.286;2022-08-19T05:44:01;18.90;99.90
22738;DHT22;11536;50.860;4.286;2022-08-19T05:46:26;18.90;99.90
22738;DHT22;11536;50.860;4.286;2022-08-19T05:48:52;18.90;99.90
22738;DHT22;11536;50.860;4.286;2022-08-19T05:51:18;18.90;99.90
22738;DHT22;11536;50.860;4.286;2022-08-19T05:53:45;18.80;99.90
22738;DHT22;11536;50.860;4.286;2022-08-19T05:56:15;18.80;99.90
22738;DHT22;11536;50.860;4.286;2022-08-19T05:58:42;18.80;99.90
22738;DHT22;11536;50.860;4.286;2022-08-19T06:01:18;18.90;99.90
22738;DHT22;11536;50.860;4.286;2022-08-19T06:03:45;18.90;99.90
22738;DHT22;11536;50.860;4.286;2022-08-19T06:06:13;18.90;99.90
22738;DHT22;11536;50.860;4.286;2022-08-19T06:08:39;18.90;99.90
22738;DHT22;11536;50.860;4.286;2022-08-19T06:12:02;18.90;99.90
22738;DHT22;11536;50.860;4.286;2022-08-19T06:14:06;18.90;99.90
22738;DHT22;11536;50.860;4.286;2022-08-19T06:16:34;18.90;99.90
22738;DHT22;11536;50.860;4.286;2022-08-19T06:19:03;19.00;99.90
22738;DHT22;11536;50.860;4.286;2022-08-19T06:21:29;19.00;99.90
22738;DHT22;11536;50.860;4.286;2022-08-19T06:23:56;19.10;99.90
22738;DHT22;11536;50.860;4.286;2022-08-19T06:26:23;19.10;99.90
22738;DHT22;11536;50.860;4.286;2022-08-19T06:28:50;19.10;99.90
22738;DHT22;11536;50.860;4.286;2022-08-19T06:31:22;19.20;99.90
22738;DHT22;11536;50.860;4.286;2022-08-19T06:33:49;19.20;99.90
22738;DHT22;11536;50.860;4.286;2022-08-19T06:36:21;19.30;99.90
22738;DHT22;11536;50.860;4.286;2022-08-19T06:38:52;19.30;99.90
22738;DHT22;11536;50.860;4.286;2022-08-19T06:41:18;19.30;99.90
22738;DHT22;11536;50.860;4.286;2022-08-19T06:43:44;19.40;99.90
22738;DHT22;11536;50.860;4.286;2022-08-19T06:46:14;19.40;99.90
22738;DHT22;11536;50.860;4.286;2022-08-19T06:48:40;19.50;99.90
22738;DHT22;11536;50.860;4.286;2022-08-19T06:51:06;19.50;99.90
22738;DHT22;11536;50.860;4.286;2022-08-19T06:53:32;19.60;99.90
22738;DHT22;11536;50.860;4.286;2022-08-19T06:55:58;19.60;99.90
22738;DHT22;11536;50.860;4.286;2022-08-19T06:58:29;19.60;99.90
22738;DHT22;11536;50.860;4.286;2022-08-19T07:00:59;19.70;99.90
22738;DHT22;11536;50.860;4.286;2022-08-19T07:03:27;19.70;99.90
22738;DHT22;11536;50.860;4.286;2022-08-19T07:05:54;19.80;99.90
22738;DHT22;11536;50.860;4.286;2022-08-19T07:08:19;19.90;99.90
22738;DHT22;11536;50.860;4.286;2022-08-19T07:10:46;19.90;99.90
22738;DHT22;11536;50.860;4.286;2022-08-19T07:13:12;19.90;99.90
22738;DHT22;11536;50.860;4.286;2022-08-19T07:15:37;20.00;99.90
22738;DHT22;11536;50.860;4.286;2022-08-19T07:18:03;20.00;99.90
22738;DHT22;11536;50.860;4.286;2022-08-19T07:20:29;20.10;99.90
22738;DHT22;11536;50.860;4.286;2022-08-19T07:22:54;20.10;99.90
22738;DHT22;11536;50.860;4.286;2022-08-19T07:25:20;20.20;99.90
22738;DHT22;11536;50.860;4.286;2022-08-19T07:27:48;20.20;99.90
22738;DHT22;11536;50.860;4.286;2022-08-19T07:30:14;20.20;99.90
22738;DHT22;11536;50.860;4.286;2022-08-19T07:32:40;20.30;99.90
22738;DHT22;11536;50.860;4.286;2022-08-19T07:35:08;20.40;99.90
22738;DHT22;11536;50.860;4.286;2022-08-19T07:37:35;20.40;99.90
22738;DHT22;11536;50.860;4.286;2022-08-19T07:40:04;20.50;99.90
22738;DHT22;11536;50.860;4.286;2022-08-19T07:42:30;20.50;99.90
22738;DHT22;11536;50.860;4.286;2022-08-19T07:44:56;20.60;99.90
22738;DHT22;11536;50.860;4.286;2022-08-19T07:47:22;20.60;99.90
22738;DHT22;11536;50.860;4.286;2022-08-19T07:49:47;20.70;99.90
22738;DHT22;11536;50.860;4.286;2022-08-19T07:52:14;20.70;99.90
22738;DHT22;11536;50.860;4.286;2022-08-19T07:54:40;20.80;99.90
22738;DHT22;11536;50.860;4.286;2022-08-19T07:57:07;20.80;99.90
22738;DHT22;11536;50.860;4.286;2022-08-19T07:59:33;20.90;99.90
22738;DHT22;11536;50.860;4.286;2022-08-19T08:01:59;20.90;99.90
22738;DHT22;11536;50.860;4.286;2022-08-19T08:04:26;21.00;99.90
22738;DHT22;11536;50.860;4.286;2022-08-19T08:07:10;21.00;99.90
22738;DHT22;11536;50.860;4.286;2022-08-19T08:09:54;21.10;99.90
22738;DHT22;11536;50.860;4.286;2022-08-19T08:12:27;21.10;99.90
22738;DHT22;11536;50.860;4.286;2022-08-19T08:14:57;21.10;99.90
22738;DHT22;11536;50.860;4.286;2022-08-19T08:17:26;21.20;99.90
22738;DHT22;11536;50.860;4.286;2022-08-19T08:19:53;21.20;99.90
22738;DHT22;11536;50.860;4.286;2022-08-19T08:22:21;21.20;99.90
22738;DHT22;11536;50.860;4.286;2022-08-19T08:25:14;21.30;99.90
22738;DHT22;11536;50.860;4.286;2022-08-19T08:27:43;21.30;99.90
22738;DHT22;11536;50.860;4.286;2022-08-19T08:30:16;21.40;99.90
22738;DHT22;11536;50.860;4.286;2022-08-19T08:32:42;21.40;99.90
22738;DHT22;11536;50.860;4.286;2022-08-19T08:35:11;21.40;99.90
22738;DHT22;11536;50.860;4.286;2022-08-19T08:37:38;21.40;99.90
22738;DHT22;11536;50.860;4.286;2022-08-19T08:40:18;21.40;99.90
22738;DHT22;11536;50.860;4.286;2022-08-19T08:42:55;21.50;99.90
22738;DHT22;11536;50.860;4.286;2022-08-19T08:45:27;21.50;99.90
22738;DHT22;11536;50.860;4.286;2022-08-19T08:47:57;21.50;99.90
22738;DHT22;11536;50.860;4.286;2022-08-19T08:50:34;21.50;99.90
22738;DHT22;11536;50.860;4.286;2022-08-19T08:53:04;21.60;99.90
22738;DHT22;11536;50.860;4.286;2022-08-19T08:55:31;21.70;99.90
22738;DHT22;11536;50.860;4.286;2022-08-19T08:58:06;21.70;99.90
22738;DHT22;11536;50.860;4.286;2022-08-19T09:00:40;21.70;99.90
22738;DHT22;11536;50.860;4.286;2022-08-19T09:03:18;21.80;99.90
22738;DHT22;11536;50.860;4.286;2022-08-19T09:16:59;22.00;99.90
22738;DHT22;11536;50.860;4.286;2022-08-19T09:19:29;22.00;99.90
22738;DHT22;11536;50.860;4.286;2022-08-19T09:21:55;22.00;99.90
22738;DHT22;11536;50.860;4.286;2022-08-19T09:24:21;22.00;99.90
22738;DHT22;11536;50.860;4.286;2022-08-19T09:26:46;22.00;99.90
22738;DHT22;11536;50.860;4.286;2022-08-19T09:29:12;22.10;99.90
22738;DHT22;11536;50.860;4.286;2022-08-19T09:31:38;22.10;99.90
22738;DHT22;11536;50.860;4.286;2022-08-19T09:34:04;22.10;99.90
22738;DHT22;11536;50.860;4.286;2022-08-19T09:36:31;22.10;99.90
22738;DHT22;11536;50.860;4.286;2022-08-19T09:39:05;22.10;99.90
22738;DHT22;11536;50.860;4.286;2022-08-19T09:41:31;22.10;99.90
22738;DHT22;11536;50.860;4.286;2022-08-19T09:43:58;22.10;99.90
22738;DHT22;11536;50.860;4.286;2022-08-19T09:46:25;22.20;99.90
22738;DHT22;11536;50.860;4.286;2022-08-19T09:48:52;22.20;99.90
22738;DHT22;11536;50.860;4.286;2022-08-19T09:51:22;22.20;99.90
22738;DHT22;11536;50.860;4.286;2022-08-19T09:53:49;22.20;99.90
22738;DHT22;11536;50.860;4.286;2022-08-19T09:56:17;22.30;99.90
22738;DHT22;11536;50.860;4.286;2022-08-19T09:58:42;22.30;99.90
22738;DHT22;11536;50.860;4.286;2022-08-19T10:01:08;22.30;99.90
22738;DHT22;11536;50.860;4.286;2022-08-19T10:03:35;22.40;99.90
22738;DHT22;11536;50.860;4.286;2022-08-19T10:06:03;22.40;99.90
22738;DHT22;11536;50.860;4.286;2022-08-19T10:08:32;22.40;99.90
22738;DHT22;11536;50.860;4.286;2022-08-19T10:10:59;22.40;99.90
22738;DHT22;11536;50.860;4.286;2022-08-19T10:13:27;22.40;99.90
22738;DHT22;11536;50.860;4.286;2022-08-19T10:15:55;22.40;99.90
22738;DHT22;11536;50.860;4.286;2022-08-19T10:18:23;22.40;99.90
22738;DHT22;11536;50.860;4.286;2022-08-19T10:20:50;22.40;99.90
22738;DHT22;11536;50.860;4.286;2022-08-19T10:23:16;22.40;99.90
22738;DHT22;11536;50.860;4.286;2022-08-19T10:25:42;22.50;99.90
22738;DHT22;11536;50.860;4.286;2022-08-19T10:28:08;22.50;99.90
22738;DHT22;11536;50.860;4.286;2022-08-19T10:30:40;22.50;99.90
22738;DHT22;11536;50.860;4.286;2022-08-19T10:33:06;22.50;99.90
22738;DHT22;11536;50.860;4.286;2022-08-19T10:35:32;22.60;99.90
22738;DHT22;11536;50.860;4.286;2022-08-19T10:37:58;22.60;99.90
22738;DHT22;11536;50.860;4.286;2022-08-19T10:40:25;22.60;99.90
22738;DHT22;11536;50.860;4.286;2022-08-19T10:42:52;22.60;99.90
22738;DHT22;11536;50.860;4.286;2022-08-19T10:45:18;22.60;99.90
22738;DHT22;11536;50.860;4.286;2022-08-19T10:47:44;22.50;99.90
22738;DHT22;11536;50.860;4.286;2022-08-19T10:50:09;22.50;99.90
22738;DHT22;11536;50.860;4.286;2022-08-19T10:52:53;22.60;99.90
22738;DHT22;11536;50.860;4.286;2022-08-19T10:55:23;22.60;99.90
22738;DHT22;11536;50.860;4.286;2022-08-19T10:58:13;22.60;99.90
22738;DHT22;11536;50.860;4.286;2022-08-19T11:00:40;22.60;99.90
22738;DHT22;11536;50.860;4.286;2022-08-19T11:03:06;22.60;99.90
22738;DHT22;11536;50.860;4.286;2022-08-19T11:05:31;22.60;99.90
22738;DHT22;11536;50.860;4.286;2022-08-19T11:07:57;22.60;99.90
22738;DHT22;11536;50.860;4.286;2022-08-19T11:10:22;22.70;99.90
22738;DHT22;11536;50.860;4.286;2022-08-19T11:12:48;22.70;99.90
22738;DHT22;11536;50.860;4.286;2022-08-19T11:15:19;22.80;99.90
22738;DHT22;11536;50.860;4.286;2022-08-19T11:17:45;22.80;99.90
22738;DHT22;11536;50.860;4.286;2022-08-19T11:20:12;22.90;99.90
22738;DHT22;11536;50.860;4.286;2022-08-19T11:22:39;22.90;99.90
22738;DHT22;11536;50.860;4.286;2022-08-19T11:25:06;22.90;99.90
22738;DHT22;11536;50.860;4.286;2022-08-19T11:27:31;22.90;99.90
22738;DHT22;11536;50.860;4.286;2022-08-19T11:29:57;22.90;99.90
22738;DHT22;11536;50.860;4.286;2022-08-19T11:32:23;22.90;99.90
22738;DHT22;11536;50.860;4.286;2022-08-19T11:34:48;22.90;99.90
22738;DHT22;11536;50.860;4.286;2022-08-19T11:37:14;22.90;99.90
22738;DHT22;11536;50.860;4.286;2022-08-19T11:39:41;22.90;99.90
22738;DHT22;11536;50.860;4.286;2022-08-19T11:42:06;23.00;99.90
22738;DHT22;11536;50.860;4.286;2022-08-19T11:44:52;23.00;99.90
22738;DHT22;11536;50.860;4.286;2022-08-19T11:47:19;23.10;99.90
22738;DHT22;11536;50.860;4.286;2022-08-19T11:49:46;23.00;99.90
22738;DHT22;11536;50.860;4.286;2022-08-19T11:52:11;23.10;99.90
22738;DHT22;11536;50.860;4.286;2022-08-19T11:54:37;23.20;99.90
22738;DHT22;11536;50.860;4.286;2022-08-19T11:57:03;23.30;99.90
22738;DHT22;11536;50.860;4.286;2022-08-19T11:59:29;23.30;99.90
22738;DHT22;11536;50.860;4.286;2022-08-19T12:01:55;23.40;99.90
22738;DHT22;11536;50.860;4.286;2022-08-19T12:04:21;23.40;99.90
22738;DHT22;11536;50.860;4.286;2022-08-19T12:06:47;23.40;99.90
22738;DHT22;11536;50.860;4.286;2022-08-19T12:09:14;23.50;99.90
22738;DHT22;11536;50.860;4.286;2022-08-19T12:11:41;23.50;99.90
22738;DHT22;11536;50.860;4.286;2022-08-19T12:14:10;23.50;99.90
22738;DHT22;11536;50.860;4.286;2022-08-19T12:16:36;23.60;99.90
22738;DHT22;11536;50.860;4.286;2022-08-19T12:19:04;23.60;99.90
22738;DHT22;11536;50.860;4.286;2022-08-19T12:21:31;23.60;99.90
22738;DHT22;11536;50.860;4.286;2022-08-19T12:23:58;23.70;99.90
22738;DHT22;11536;50.860;4.286;2022-08-19T12:26:26;23.70;99.90
22738;DHT22;11536;50.860;4.286;2022-08-19T12:28:53;23.80;99.90
22738;DHT22;11536;50.860;4.286;2022-08-19T12:31:19;23.80;99.90
22738;DHT22;11536;50.860;4.286;2022-08-19T12:33:45;23.90;99.90
22738;DHT22;11536;50.860;4.286;2022-08-19T12:36:13;23.90;99.90
22738;DHT22;11536;50.860;4.286;2022-08-19T12:38:39;23.90;99.90
22738;DHT22;11536;50.860;4.286;2022-08-19T12:41:06;24.00;99.90
22738;DHT22;11536;50.860;4.286;2022-08-19T12:43:33;24.00;99.90
22738;DHT22;11536;50.860;4.286;2022-08-19T12:46:00;24.10;99.90
22738;DHT22;11536;50.860;4.286;2022-08-19T12:48:26;24.10;99.90
22738;DHT22;11536;50.860;4.286;2022-08-19T12:50:52;24.10;99.90
22738;DHT22;11536;50.860;4.286;2022-08-19T12:53:18;24.20;99.90
22738;DHT22;11536;50.860;4.286;2022-08-19T12:55:43;24.20;99.90
22738;DHT22;11536;50.860;4.286;2022-08-19T12:58:09;24.30;99.90
22738;DHT22;11536;50.860;4.286;2022-08-19T13:00:35;24.30;99.90
22738;DHT22;11536;50.860;4.286;2022-08-19T13:03:01;24.40;99.90
22738;DHT22;11536;50.860;4.286;2022-08-19T13:05:30;24.40;99.90
22738;DHT22;11536;50.860;4.286;2022-08-19T13:07:58;24.30;99.90
22738;DHT22;11536;50.860;4.286;2022-08-19T13:10:28;24.30;99.90
22738;DHT22;11536;50.860;4.286;2022-08-19T13:12:54;24.40;99.90
22738;DHT22;11536;50.860;4.286;2022-08-19T13:15:22;24.40;99.90
22738;DHT22;11536;50.860;4.286;2022-08-19T13:17:49;24.50;99.90
22738;DHT22;11536;50.860;4.286;2022-08-19T13:20:17;24.50;99.90
22738;DHT22;11536;50.860;4.286;2022-08-19T13:22:42;24.50;99.90
22738;DHT22;11536;50.860;4.286;2022-08-19T13:25:11;24.40;99.90
22738;DHT22;11536;50.860;4.286;2022-08-19T13:27:38;24.50;99.90
22738;DHT22;11536;50.860;4.286;2022-08-19T13:30:05;24.50;99.90
22738;DHT22;11536;50.860;4.286;2022-08-19T13:32:49;24.50;99.90
22738;DHT22;11536;50.860;4.286;2022-08-19T13:35:34;24.70;99.90
22738;DHT22;11536;50.860;4.286;2022-08-19T13:37:59;24.70;99.90
22738;DHT22;11536;50.860;4.286;2022-08-19T13:40:26;24.80;99.90
22738;DHT22;11536;50.860;4.286;2022-08-19T13:42:53;25.00;99.90
22738;DHT22;11536;50.860;4.286;2022-08-19T13:45:22;25.00;99.90
22738;DHT22;11536;50.860;4.286;2022-08-19T13:47:52;25.00;99.90
22738;DHT22;11536;50.860;4.286;2022-08-19T13:50:21;25.00;99.90
22738;DHT22;11536;50.860;4.286;2022-08-19T13:52:48;25.00;99.90
22738;DHT22;11536;50.860;4.286;2022-08-19T13:55:14;25.00;99.90
22738;DHT22;11536;50.860;4.286;2022-08-19T13:57:41;24.90;99.90
22738;DHT22;11536;50.860;4.286;2022-08-19T14:00:13;24.80;99.90
22738;DHT22;11536;50.860;4.286;2022-08-19T14:02:41;24.70;99.90
22738;DHT22;11536;50.860;4.286;2022-08-19T14:05:09;24.70;99.90
22738;DHT22;11536;50.860;4.286;2022-08-19T14:07:36;24.60;99.90
22738;DHT22;11536;50.860;4.286;2022-08-19T14:10:04;24.50;99.90
22738;DHT22;11536;50.860;4.286;2022-08-19T14:12:31;24.50;99.90
22738;DHT22;11536;50.860;4.286;2022-08-19T14:14:57;24.50;99.90
22738;DHT22;11536;50.860;4.286;2022-08-19T14:17:23;24.40;99.90
22738;DHT22;11536;50.860;4.286;2022-08-19T14:19:57;24.40;99.90
22738;DHT22;11536;50.860;4.286;2022-08-19T14:22:23;24.30;99.90
22738;DHT22;11536;50.860;4.286;2022-08-19T14:24:48;24.30;99.90
22738;DHT22;11536;50.860;4.286;2022-08-19T14:27:15;24.30;99.90
22738;DHT22;11536;50.860;4.286;2022-08-19T14:29:41;24.30;99.90
22738;DHT22;11536;50.860;4.286;2022-08-19T14:32:06;24.30;99.90
22738;DHT22;11536;50.860;4.286;2022-08-19T14:34:32;24.20;99.90
22738;DHT22;11536;50.860;4.286;2022-08-19T14:36:59;24.10;99.90
22738;DHT22;11536;50.860;4.286;2022-08-19T14:39:24;24.10;99.90
22738;DHT22;11536;50.860;4.286;2022-08-19T14:41:50;24.00;99.90
22738;DHT22;11536;50.860;4.286;2022-08-19T14:44:16;24.00;99.90
22738;DHT22;11536;50.860;4.286;2022-08-19T14:46:41;23.90;99.90
22738;DHT22;11536;50.860;4.286;2022-08-19T14:49:07;23.90;99.90
22738;DHT22;11536;50.860;4.286;2022-08-19T14:51:33;23.90;99.90
22738;DHT22;11536;50.860;4.286;2022-08-19T14:53:59;24.00;99.90
22738;DHT22;11536;50.860;4.286;2022-08-19T14:56:27;24.00;99.90
22738;DHT22;11536;50.860;4.286;2022-08-19T14:58:54;24.10;99.90
22738;DHT22;11536;50.860;4.286;2022-08-19T15:01:21;24.20;99.90
22738;DHT22;11536;50.860;4.286;2022-08-19T15:03:48;24.30;99.90
22738;DHT22;11536;50.860;4.286;2022-08-19T15:06:14;24.20;99.90
22738;DHT22;11536;50.860;4.286;2022-08-19T15:08:41;24.30;99.90
22738;DHT22;11536;50.860;4.286;2022-08-19T15:11:10;24.30;99.90
22738;DHT22;11536;50.860;4.286;2022-08-19T15:13:36;24.30;99.90
22738;DHT22;11536;50.860;4.286;2022-08-19T15:16:02;24.30;99.90
22738;DHT22;11536;50.860;4.286;2022-08-19T15:18:28;24.30;99.90
22738;DHT22;11536;50.860;4.286;2022-08-19T15:20:54;24.30;99.90
22738;DHT22;11536;50.860;4.286;2022-08-19T15:23:20;24.30;99.90
22738;DHT22;11536;50.860;4.286;2022-08-19T15:25:47;24.30;99.90
22738;DHT22;11536;50.860;4.286;2022-08-19T15:28:13;24.20;99.90
22738;DHT22;11536;50.860;4.286;2022-08-19T15:30:41;24.20;99.90
22738;DHT22;11536;50.860;4.286;2022-08-19T15:33:10;24.20;99.90
22738;DHT22;11536;50.860;4.286;2022-08-19T15:35:40;24.20;99.90
22738;DHT22;11536;50.860;4.286;2022-08-19T15:38:06;24.20;99.90
22738;DHT22;11536;50.860;4.286;2022-08-19T15:40:33;24.20;99.90
22738;DHT22;11536;50.860;4.286;2022-08-19T15:42:58;24.20;99.90
22738;DHT22;11536;50.860;4.286;2022-08-19T15:45:24;24.20;99.90
22738;DHT22;11536;50.860;4.286;2022-08-19T15:48:00;24.20;99.90
22738;DHT22;11536;50.860;4.286;2022-08-19T15:50:26;24.20;99.90
22738;DHT22;11536;50.860;4.286;2022-08-19T15:53:10;24.10;99.90